Time;durP1;ratioP1;P1;durP2;ratioP2;P2;SDS_P1;SDS_P2;PMS_P1;PMS_P2;Temp;Humidity;BMP_temperature;BMP_pressure;BME280_temperature;BME280_humidity;BME280_pressure;Samples;Min_cycle;Max_cycle;Signal;HPM_P1;HPM_P2
2020/12/28 00:00:33;;;;;;;;;;;;;;;4.60;67.54;96139.56;1724934;82;24905;-89
2020/12/28 00:03:24;;;;;;;;;;;;;;;4.60;67.56;96140.39;1728338;82;20504;-89
2020/12/28 00:05:57;;;;;;;;;;;;;;;4.63;67.59;96146.63;1725798;82;26123;-88
2020/12/28 00:08:44;;;;;;;;;;;;;;;4.66;67.63;96142.13;1727577;81;24587;-88
2020/12/28 00:11:34;;;;;;;;;;;;;;;4.57;67.62;96123.00;1733346;81;20254;-88
2020/12/28 00:14:20;;;;;;;;;;;;;;;4.69;67.64;96119.87;1742716;80;25192;-88
2020/12/28 00:17:07;;;;;;;;;;;;;;;4.70;67.67;96121.48;1738159;82;23001;-88
2020/12/28 00:19:54;;;;;;;;;;;;;;;4.71;67.70;96119.25;1736187;82;26162;-88
2020/12/28 00:22:40;;;;;;;;;;;;;;;4.73;67.70;96130.31;1735982;82;24624;-88
2020/12/28 00:25:26;;;;;;;;;;;;;;;4.70;67.74;96146.92;1735833;82;20298;-87
2020/12/28 00:28:13;;;;;;;;;;;;;;;4.72;67.75;96146.80;1733902;82;25141;-87
2020/12/28 00:30:59;;;;;;;;;;;;;;;4.76;67.78;96149.48;1741516;82;22327;-86
2020/12/28 00:33:45;;;;;;;;;;;;;;;4.80;67.82;96137.94;1731155;82;27004;-86
2020/12/28 00:36:32;;;;;;;;;;;;;;;4.80;67.84;96141.82;1731931;82;24633;-86
2020/12/28 00:39:18;;;;;;;;;;;;;;;4.78;67.87;96130.28;1732007;82;20286;-86
2020/12/28 00:42:05;;;;;;;;;;;;;;;4.77;67.89;96124.75;1736296;82;24814;-86
2020/12/28 00:44:51;;;;;;;;;;;;;;;4.72;67.93;96127.38;1740272;82;22936;-87
2020/12/28 00:47:38;;;;;;;;;;;;;;;4.69;67.94;96135.41;1735391;82;26243;-88
2020/12/28 00:50:25;;;;;;;;;;;;;;;4.69;67.98;96141.89;1734851;82;25094;-88
2020/12/28 00:53:15;;;;;;;;;;;;;;;4.67;68.00;96139.42;1729038;80;20183;-87
2020/12/28 00:56:03;;;;;;;;;;;;;;;4.69;68.04;96129.73;1706215;82;24672;-87
2020/12/28 00:58:49;;;;;;;;;;;;;;;4.70;68.08;96119.72;1742283;82;22955;-87
2020/12/28 01:01:35;;;;;;;;;;;;;;;4.71;68.11;96104.53;1709390;83;26969;-87
2020/12/28 01:04:22;;;;;;;;;;;;;;;4.71;68.12;96098.05;1707766;83;24614;-87
2020/12/28 01:07:08;;;;;;;;;;;;;;;4.72;68.18;96096.28;1708057;83;20645;-88
2020/12/28 01:09:54;;;;;;;;;;;;;;;4.73;68.21;96088.86;1710991;83;24979;-87
2020/12/28 01:12:40;;;;;;;;;;;;;;;4.72;68.25;96082.86;1711025;83;22233;-87
2020/12/28 01:15:26;;;;;;;;;;;;;;;4.74;68.28;96080.15;1708548;83;26090;-87
2020/12/28 01:18:12;;;;;;;;;;;;;;;4.72;68.28;96056.95;1731945;82;24613;-87
2020/12/28 01:20:58;;;;;;;;;;;;;;;4.71;68.30;96057.90;1730721;82;20284;-87
2020/12/28 01:23:48;;;;;;;;;;;;;;;4.72;68.33;96048.36;1734880;81;25953;-87
2020/12/28 01:26:35;;;;;;;;;;;;;;;4.68;68.34;96040.03;1729152;82;22047;-87
2020/12/28 01:29:21;;;;;;;;;;;;;;;4.63;68.38;96029.24;1734740;82;26115;-86
2020/12/28 01:32:08;;;;;;;;;;;;;;;4.60;68.37;96025.13;1732644;82;24791;-86
2020/12/28 01:34:55;;;;;;;;;;;;;;;4.60;68.40;96016.06;1727517;82;20276;-86
2020/12/28 01:37:41;;;;;;;;;;;;;;;4.58;68.41;95999.82;1732294;82;25684;-86
2020/12/28 01:40:27;;;;;;;;;;;;;;;4.56;68.44;95995.27;1735062;82;23060;-87
2020/12/28 01:43:13;;;;;;;;;;;;;;;4.56;68.45;96012.10;1734914;82;27151;-86
2020/12/28 01:46:00;;;;;;;;;;;;;;;4.53;68.48;95999.86;1738341;82;24796;-86
2020/12/28 01:48:46;;;;;;;;;;;;;;;4.54;68.51;96006.22;1724867;82;20367;-87
2020/12/28 01:51:33;;;;;;;;;;;;;;;4.53;68.54;96018.81;1706677;83;25901;-87
2020/12/28 01:54:22;;;;;;;;;;;;;;;4.55;68.56;96026.47;1702751;83;22928;-86
2020/12/28 01:57:08;;;;;;;;;;;;;;;4.54;68.57;96019.17;1732292;82;26194;-86
2020/12/28 01:59:55;;;;;;;;;;;;;;;4.54;68.62;96006.22;1734054;81;24667;-87
2020/12/28 02:02:41;;;;;;;;;;;;;;;4.55;68.67;96007.86;1707498;83;20336;-86
2020/12/28 02:05:27;;;;;;;;;;;;;;;4.53;68.68;96006.34;1710660;83;24942;-87
2020/12/28 02:08:14;;;;;;;;;;;;;;;4.54;68.72;95995.86;1711915;83;22137;-87
2020/12/28 02:11:04;;;;;;;;;;;;;;;4.50;68.74;95998.84;1704930;82;26984;-86
2020/12/28 02:13:53;;;;;;;;;;;;;;;4.49;68.76;95995.91;1726321;82;25565;-87
2020/12/28 02:16:39;;;;;;;;;;;;;;;4.49;68.76;95991.55;1721620;82;20287;-87
2020/12/28 02:19:25;;;;;;;;;;;;;;;4.53;68.79;95986.45;1734196;82;24917;-86
2020/12/28 02:22:11;;;;;;;;;;;;;;;4.54;68.81;95988.56;1702538;83;22205;-87
2020/12/28 02:24:57;;;;;;;;;;;;;;;4.54;68.83;95990.68;1705620;83;26293;-87
2020/12/28 02:27:44;;;;;;;;;;;;;;;4.50;68.85;95995.78;1698723;83;25533;-86
2020/12/28 02:30:30;;;;;;;;;;;;;;;4.49;68.86;95988.95;1702500;83;20270;-86
2020/12/28 02:33:17;;;;;;;;;;;;;;;4.52;68.86;95996.95;1735158;82;24864;-87
2020/12/28 02:36:02;;;;;;;;;;;;;;;4.54;68.88;95990.68;1732458;82;22156;-88
2020/12/28 02:38:49;;;;;;;;;;;;;;;4.57;68.89;95991.73;1700446;83;26264;-88
2020/12/28 02:41:35;;;;;;;;;;;;;;;4.62;68.91;95997.34;1702560;83;24699;-88
2020/12/28 02:44:21;;;;;;;;;;;;;;;4.63;68.91;95993.80;1694550;82;20550;-88
2020/12/28 02:47:11;;;;;;;;;;;;;;;4.65;68.93;95998.83;1734108;81;24246;-88
2020/12/28 02:49:57;;;;;;;;;;;;;;;4.69;68.94;95998.12;1731564;82;22208;-88
2020/12/28 02:52:43;;;;;;;;;;;;;;;4.69;68.95;95996.82;1731466;82;27243;-87
2020/12/28 02:55:29;;;;;;;;;;;;;;;4.72;68.93;95993.48;1735211;82;25508;-88
2020/12/28 02:58:17;;;;;;;;;;;;;;;4.74;68.92;96001.13;1726786;82;20670;-88
2020/12/28 03:01:04;;;;;;;;;;;;;;;4.77;68.93;95987.43;1724658;82;24922;-87
2020/12/28 03:03:51;;;;;;;;;;;;;;;4.77;68.95;95971.89;1729534;82;22392;-89
2020/12/28 03:06:37;;;;;;;;;;;;;;;4.79;68.95;95975.65;1729721;82;26118;-89
2020/12/28 03:09:23;;;;;;;;;;;;;;;4.78;68.95;95960.58;1729764;82;24738;-88
2020/12/28 03:12:10;;;;;;;;;;;;;;;4.80;68.97;95961.75;1726191;81;20408;-88
2020/12/28 03:14:56;;;;;;;;;;;;;;;4.84;68.96;95964.41;1716188;82;24920;-87
2020/12/28 03:17:42;;;;;;;;;;;;;;;4.84;68.98;95953.58;1718956;82;21406;-88
2020/12/28 03:20:28;;;;;;;;;;;;;;;4.86;69.00;95946.94;1725134;82;26118;-88
2020/12/28 03:23:14;;;;;;;;;;;;;;;4.84;69.01;95939.32;1714019;82;24616;-88
2020/12/28 03:26:03;;;;;;;;;;;;;;;4.82;69.03;95923.08;1723834;82;20270;-87
2020/12/28 03:28:49;;;;;;;;;;;;;;;4.80;69.03;95921.59;1735276;81;24898;-88
2020/12/28 03:31:35;;;;;;;;;;;;;;;4.72;69.03;95915.77;1722851;82;22150;-88
2020/12/28 03:34:22;;;;;;;;;;;;;;;4.65;69.03;95921.13;1717247;82;26992;-88
2020/12/28 03:37:08;;;;;;;;;;;;;;;4.60;69.04;95903.87;1729821;82;24595;-88
2020/12/28 03:39:54;;;;;;;;;;;;;;;4.59;69.02;95903.52;1718501;82;20379;-88
2020/12/28 03:42:43;;;;;;;;;;;;;;;4.55;69.06;95890.50;1720858;82;24872;-88
2020/12/28 03:45:28;;;;;;;;;;;;;;;4.53;69.07;95896.27;1702397;82;22126;-89
2020/12/28 03:48:15;;;;;;;;;;;;;;;4.51;69.08;95881.36;1702519;83;26199;-88
2020/12/28 03:51:01;;;;;;;;;;;;;;;4.47;69.11;95883.38;1696517;83;24611;-88
2020/12/28 03:53:47;;;;;;;;;;;;;;;4.46;69.12;95884.35;1702078;83;20291;-88
2020/12/28 03:56:33;;;;;;;;;;;;;;;4.42;69.13;95868.72;1701703;83;25138;-88
2020/12/28 03:59:19;;;;;;;;;;;;;;;4.42;69.14;95869.22;1698638;83;22148;-88
2020/12/28 04:02:05;;;;;;;;;;;;;;;4.42;69.17;95865.34;1702468;83;26117;-88
2020/12/28 04:04:56;;;;;;;;;;;;;;;4.42;69.19;95852.39;1699919;83;24813;-88
2020/12/28 04:07:42;;;;;;;;;;;;;;;4.40;69.22;95831.80;1697718;83;20375;-88
2020/12/28 04:10:30;;;;;;;;;;;;;;;4.41;69.23;95847.69;1697965;82;25086;-88
2020/12/28 04:13:16;;;;;;;;;;;;;;;4.40;69.24;95820.62;1702259;83;23125;-88
2020/12/28 04:16:02;;;;;;;;;;;;;;;4.38;69.27;95815.57;1697958;83;26205;-87
2020/12/28 04:18:48;;;;;;;;;;;;;;;4.36;69.28;95814.91;1696741;83;24583;-87
2020/12/28 04:21:35;;;;;;;;;;;;;;;4.36;69.29;95803.72;1700484;83;20387;-87
2020/12/28 04:24:21;;;;;;;;;;;;;;;4.34;69.29;95815.50;1697996;83;25689;-87
2020/12/28 04:27:07;;;;;;;;;;;;;;;4.35;69.32;95803.38;1704218;83;22067;-88
2020/12/28 04:29:53;;;;;;;;;;;;;;;4.35;69.33;95817.62;1695985;83;26130;-88
2020/12/28 04:32:39;;;;;;;;;;;;;;;4.38;69.34;95817.34;1701129;83;24920;-88
2020/12/28 04:35:25;;;;;;;;;;;;;;;4.41;69.34;95811.91;1700188;83;20332;-88
2020/12/28 04:38:16;;;;;;;;;;;;;;;4.42;69.35;95827.80;1702160;83;24969;-88
2020/12/28 04:41:03;;;;;;;;;;;;;;;4.44;69.35;95826.69;1697173;83;21870;-89
2020/12/28 04:43:49;;;;;;;;;;;;;;;4.44;69.39;95809.86;1701666;83;26130;-88
2020/12/28 04:46:35;;;;;;;;;;;;;;;4.44;69.37;95811.16;1702762;83;24604;-88
2020/12/28 04:49:22;;;;;;;;;;;;;;;4.49;69.38;95825.81;1699976;83;20394;-88
2020/12/28 04:52:08;;;;;;;;;;;;;;;4.52;69.40;95804.84;1700030;83;25053;-88
2020/12/28 04:54:54;;;;;;;;;;;;;;;4.57;69.42;95785.83;1704353;83;22144;-88
2020/12/28 04:57:40;;;;;;;;;;;;;;;4.61;69.42;95782.48;1701744;83;27111;-88
2020/12/28 05:00:26;;;;;;;;;;;;;;;4.60;69.42;95807.56;1696846;83;24870;-89
2020/12/28 05:03:13;;;;;;;;;;;;;;;4.57;69.45;95778.06;1702290;83;20299;-88
2020/12/28 05:06:00;;;;;;;;;;;;;;;4.58;69.44;95771.12;1701368;83;25722;-87
2020/12/28 05:08:46;;;;;;;;;;;;;;;4.59;69.44;95769.66;1704395;83;22224;-87
2020/12/28 05:11:32;;;;;;;;;;;;;;;4.61;69.44;95757.88;1698689;83;26179;-86
2020/12/28 05:14:18;;;;;;;;;;;;;;;4.59;69.44;95758.48;1700372;83;24793;-87
2020/12/28 05:17:05;;;;;;;;;;;;;;;4.62;69.44;95752.57;1700827;83;20285;-87
2020/12/28 05:19:51;;;;;;;;;;;;;;;4.64;69.45;95751.94;1707927;83;24840;-87
2020/12/28 05:22:37;;;;;;;;;;;;;;;4.65;69.45;95769.59;1699038;83;22165;-87
2020/12/28 05:25:23;;;;;;;;;;;;;;;4.67;69.46;95773.35;1699287;83;25665;-87
2020/12/28 05:28:10;;;;;;;;;;;;;;;4.66;69.45;95773.01;1704200;83;24893;-87
2020/12/28 05:30:59;;;;;;;;;;;;;;;4.64;69.47;95770.07;1702323;82;20560;-87
2020/12/28 05:33:46;;;;;;;;;;;;;;;4.60;69.48;95755.77;1694469;83;24933;-87
2020/12/28 05:36:32;;;;;;;;;;;;;;;4.59;69.46;95758.48;1729332;82;22229;-87
2020/12/28 05:39:18;;;;;;;;;;;;;;;4.57;69.46;95757.34;1717937;82;26942;-87
2020/12/28 05:42:08;;;;;;;;;;;;;;;4.54;69.43;95731.70;1727758;82;25453;-87
2020/12/28 05:44:54;;;;;;;;;;;;;;;4.52;69.45;95743.98;1732078;82;20353;-89
2020/12/28 05:47:41;;;;;;;;;;;;;;;4.53;69.45;95731.83;1721789;82;26065;-88
2020/12/28 05:50:27;;;;;;;;;;;;;;;4.54;69.46;95722.64;1700051;83;22210;-88
2020/12/28 05:53:13;;;;;;;;;;;;;;;4.52;69.44;95712.09;1701707;83;26965;-88
2020/12/28 05:55:59;;;;;;;;;;;;;;;4.51;69.45;95721.62;1699055;83;24588;-87
2020/12/28 05:58:46;;;;;;;;;;;;;;;4.50;69.44;95694.09;1707749;83;20360;-88
2020/12/28 06:01:32;;;;;;;;;;;;;;;4.55;69.41;95701.45;1702889;83;25084;-88
2020/12/28 06:04:18;;;;;;;;;;;;;;;4.59;69.39;95714.45;1699934;83;22066;-88
2020/12/28 06:07:04;;;;;;;;;;;;;;;4.63;69.40;95711.95;1700547;83;26363;-88
2020/12/28 06:09:50;;;;;;;;;;;;;;;4.62;69.40;95702.54;1697773;83;24631;-87
2020/12/28 06:12:37;;;;;;;;;;;;;;;4.64;69.38;95703.20;1702351;83;20487;-89
2020/12/28 06:15:24;;;;;;;;;;;;;;;4.66;69.38;95686.23;1695937;83;25007;-88
2020/12/28 06:18:12;;;;;;;;;;;;;;;4.66;69.37;95669.40;1708407;83;22488;-88
2020/12/28 06:20:59;;;;;;;;;;;;;;;4.61;69.35;95665.94;1704543;83;26164;-88
2020/12/28 06:23:47;;;;;;;;;;;;;;;4.59;69.34;95669.13;1700134;82;24624;-87
2020/12/28 06:26:33;;;;;;;;;;;;;;;4.61;69.31;95675.82;1700665;83;20403;-88
2020/12/28 06:29:19;;;;;;;;;;;;;;;4.63;69.31;95679.10;1701423;83;24986;-88
2020/12/28 06:32:05;;;;;;;;;;;;;;;4.64;69.32;95666.94;1693987;83;21533;-88
2020/12/28 06:34:51;;;;;;;;;;;;;;;4.63;69.31;95666.15;1690377;83;26115;-87
2020/12/28 06:37:37;;;;;;;;;;;;;;;4.67;69.31;95656.32;1695462;83;24761;-87
2020/12/28 06:40:33;;;;;;;;;;;;;;;4.68;69.31;95659.73;1699496;83;20431;-87
2020/12/28 06:43:25;;;;;;;;;;;;;;;4.72;69.30;95652.02;1706283;83;24915;-87
2020/12/28 06:46:12;;;;;;;;;;;;;;;4.74;69.30;95643.63;1701503;83;22207;-87
2020/12/28 06:48:59;;;;;;;;;;;;;;;4.74;69.30;95643.63;1697206;83;26195;-87
2020/12/28 06:51:45;;;;;;;;;;;;;;;4.73;69.30;95631.63;1699524;83;24719;-87
2020/12/28 06:54:35;;;;;;;;;;;;;;;4.74;69.29;95623.73;1701398;83;20425;-88
2020/12/28 06:57:21;;;;;;;;;;;;;;;4.75;69.30;95631.81;1695456;83;25759;-88
2020/12/28 07:00:07;;;;;;;;;;;;;;;4.74;69.28;95630.69;1699001;83;22093;-88
2020/12/28 07:02:53;;;;;;;;;;;;;;;4.77;69.28;95629.09;1699977;83;26359;-88
2020/12/28 07:05:39;;;;;;;;;;;;;;;4.80;69.29;95619.77;1703814;83;24731;-88
2020/12/28 07:08:25;;;;;;;;;;;;;;;4.85;69.28;95623.56;1698558;83;20337;-88
2020/12/28 07:11:16;;;;;;;;;;;;;;;4.86;69.28;95617.40;1700664;83;25118;-89
2020/12/28 07:14:02;;;;;;;;;;;;;;;4.87;69.28;95616.92;1705018;83;22354;-89
2020/12/28 07:16:48;;;;;;;;;;;;;;;4.90;69.28;95629.14;1700190;83;26132;-89
2020/12/28 07:19:38;;;;;;;;;;;;;;;4.94;69.27;95624.48;1701062;83;26065;-89
2020/12/28 07:22:24;;;;;;;;;;;;;;;4.97;69.26;95620.30;1704351;83;20289;-89
2020/12/28 07:25:10;;;;;;;;;;;;;;;4.98;69.28;95634.89;1697154;83;24946;-88
2020/12/28 07:27:57;;;;;;;;;;;;;;;5.02;69.27;95605.95;1705373;83;22983;-89
2020/12/28 07:30:48;;;;;;;;;;;;;;;5.11;69.24;95630.70;1701692;83;26752;-89
2020/12/28 07:33:35;;;;;;;;;;;;;;;5.10;69.27;95633.77;1698294;83;24628;-89
2020/12/28 07:36:24;;;;;;;;;;;;;;;5.17;69.25;95642.62;1706283;83;20449;-89
2020/12/28 07:39:09;;;;;;;;;;;;;;;5.23;69.26;95649.01;1700430;83;25944;-89
2020/12/28 07:41:58;;;;;;;;;;;;;;;5.25;69.28;95635.41;1700975;83;22896;-90
2020/12/28 07:44:44;;;;;;;;;;;;;;;5.28;69.26;95650.69;1695878;83;26091;-90
2020/12/28 07:47:32;;;;;;;;;;;;;;;5.31;69.25;95640.84;1692949;83;25489;-90
2020/12/28 07:50:18;;;;;;;;;;;;;;;5.35;69.25;95621.44;1698811;83;20272;-88
2020/12/28 07:53:04;;;;;;;;;;;;;;;5.36;69.24;95623.55;1702564;83;24907;-90
2020/12/28 07:55:50;;;;;;;;;;;;;;;5.38;69.22;95619.05;1701146;82;22142;-89
2020/12/28 07:58:36;;;;;;;;;;;;;;;5.44;69.19;95618.47;1702010;83;26332;-89
2020/12/28 08:01:24;;;;;;;;;;;;;;;5.47;69.15;95631.95;1697554;83;24617;-89
2020/12/28 08:04:10;;;;;;;;;;;;;;;5.52;69.13;95628.92;1698285;83;20262;-89
2020/12/28 08:06:56;;;;;;;;;;;;;;;5.54;69.13;95635.27;1699236;83;24901;-89
2020/12/28 08:09:42;;;;;;;;;;;;;;;5.53;69.12;95605.92;1694132;83;22338;-89
2020/12/28 08:12:30;;;;;;;;;;;;;;;5.52;69.09;95587.42;1699954;83;26129;-89
2020/12/28 08:15:16;;;;;;;;;;;;;;;5.55;69.08;95574.66;1706424;82;25460;-89
2020/12/28 08:18:02;;;;;;;;;;;;;;;5.56;69.06;95566.74;1706079;83;20419;-88
2020/12/28 08:20:49;;;;;;;;;;;;;;;5.59;69.02;95566.91;1705193;83;24914;-89
2020/12/28 08:23:38;;;;;;;;;;;;;;;5.63;69.00;95565.17;1710032;83;22949;-89
2020/12/28 08:26:25;;;;;;;;;;;;;;;5.69;68.99;95570.25;1695641;83;25917;-88
2020/12/28 08:29:12;;;;;;;;;;;;;;;5.77;68.96;95580.25;1706281;82;24575;-89
2020/12/28 08:32:03;;;;;;;;;;;;;;;5.83;68.93;95586.63;1728773;82;20342;-88
2020/12/28 08:34:49;;;;;;;;;;;;;;;5.88;68.92;95601.30;1734218;82;25024;-87
2020/12/28 08:37:41;;;;;;;;;;;;;;;5.93;68.90;95606.86;1722338;82;21336;-87
2020/12/28 08:40:27;;;;;;;;;;;;;;;5.97;68.88;95607.38;1726551;82;26077;-87
2020/12/28 08:43:13;;;;;;;;;;;;;;;5.97;68.88;95613.38;1727724;82;24694;-87
2020/12/28 08:46:03;;;;;;;;;;;;;;;6.03;68.82;95608.08;1733445;82;20276;-88
2020/12/28 08:48:49;;;;;;;;;;;;;;;6.07;68.79;95624.98;1733237;82;24989;-87
2020/12/28 08:51:35;;;;;;;;;;;;;;;6.06;68.76;95616.86;1697634;83;22783;-88
2020/12/28 08:54:21;;;;;;;;;;;;;;;6.04;68.72;95615.73;1699964;83;26016;-87
2020/12/28 08:57:07;;;;;;;;;;;;;;;6.07;68.68;95630.99;1729722;81;24623;-87
2020/12/28 08:59:53;;;;;;;;;;;;;;;6.08;68.64;95624.84;1730976;82;20372;-87
2020/12/28 09:02:39;;;;;;;;;;;;;;;6.08;68.61;95619.66;1702773;83;24767;-87
2020/12/28 09:05:25;;;;;;;;;;;;;;;6.11;68.55;95604.27;1730480;82;23224;-89
2020/12/28 09:08:12;;;;;;;;;;;;;;;6.11;68.52;95614.66;1737835;82;26382;-87
2020/12/28 09:10:59;;;;;;;;;;;;;;;6.13;68.50;95598.43;1724004;82;24668;-89
2020/12/28 09:13:47;;;;;;;;;;;;;;;6.14;68.48;95609.97;1703040;83;20361;-89
2020/12/28 09:16:35;;;;;;;;;;;;;;;6.17;68.45;95596.68;1703085;83;24901;-91
2020/12/28 09:19:21;;;;;;;;;;;;;;;6.20;68.42;95602.89;1721977;82;22294;-89
2020/12/28 09:22:07;;;;;;;;;;;;;;;6.22;68.39;95599.64;1705147;83;26563;-89
2020/12/28 09:24:53;;;;;;;;;;;;;;;6.22;68.36;95606.61;1705450;83;24868;-89
2020/12/28 09:27:39;;;;;;;;;;;;;;;6.21;68.32;95613.61;1702967;83;20269;-88
2020/12/28 09:30:25;;;;;;;;;;;;;;;6.22;68.29;95607.91;1711756;82;25748;-88
2020/12/28 09:33:12;;;;;;;;;;;;;;;6.22;68.26;95599.64;1710096;83;23014;-88
2020/12/28 09:35:59;;;;;;;;;;;;;;;6.24;68.23;95599.02;1723456;82;25481;-88
2020/12/28 09:38:48;;;;;;;;;;;;;;;6.27;68.23;95609.61;1730005;81;24641;-88
2020/12/28 09:41:35;;;;;;;;;;;;;;;6.32;68.22;95602.17;1702072;83;20510;-88
2020/12/28 09:44:09;;;;;;;;;;;;;;;6.38;68.20;95576.09;1705057;82;25854;-88
2020/12/28 09:46:55;;;;;;;;;;;;;;;6.39;68.18;95594.09;1703922;83;22167;-88
2020/12/28 09:49:41;;;;;;;;;;;;;;;6.42;68.12;95583.90;1701095;83;26497;-88
2020/12/28 09:52:18;;;;;;;;;;;;;;;6.39;68.05;95588.90;1701958;83;24653;-87
2020/12/28 09:55:04;;;;;;;;;;;;;;;6.35;67.96;95577.67;1702666;83;20659;-87
2020/12/28 09:57:50;;;;;;;;;;;;;;;6.34;67.85;95581.23;1699131;83;25888;-87
2020/12/28 10:00:36;;;;;;;;;;;;;;;6.33;67.75;95574.43;1709916;82;22936;-87
2020/12/28 10:03:23;;;;;;;;;;;;;;;6.30;67.62;95550.37;1702209;82;26112;-86
2020/12/28 10:09:14;;;;;;;;;;;;;;;6.17;67.32;95534.84;1698414;82;20350;-87
2020/12/28 10:12:01;;;;;;;;;;;;;;;6.17;67.18;95533.55;1697664;83;25025;-87
2020/12/28 10:14:47;;;;;;;;;;;;;;;6.16;67.06;95520.26;1706362;82;22218;-87
2020/12/28 10:17:33;;;;;;;;;;;;;;;6.10;66.94;95502.20;1697297;83;26137;-86
2020/12/28 10:20:19;;;;;;;;;;;;;;;6.03;66.87;95477.81;1700476;83;24627;-86
2020/12/28 10:23:08;;;;;;;;;;;;;;;5.96;66.71;95438.33;1700484;83;20283;-87
2020/12/28 10:25:53;;;;;;;;;;;;;;;5.93;66.56;95444.65;1698369;83;25750;-87
2020/12/28 10:28:40;;;;;;;;;;;;;;;5.90;66.41;95442.34;1702733;83;22211;-86
2020/12/28 10:31:26;;;;;;;;;;;;;;;5.88;66.28;95463.28;1708803;82;26131;-87
2020/12/28 10:34:18;;;;;;;;;;;;;;;5.88;66.16;95444.30;1722691;82;24975;-87
2020/12/28 10:37:04;;;;;;;;;;;;;;;5.87;66.05;95438.77;1732932;82;20269;-87
2020/12/28 10:39:51;;;;;;;;;;;;;;;5.85;65.91;95406.44;1730797;81;24877;-87
2020/12/28 10:42:37;;;;;;;;;;;;;;;5.85;65.80;95433.69;1731249;82;22951;-88
2020/12/28 10:45:23;;;;;;;;;;;;;;;5.82;65.71;95443.56;1722906;82;27057;-88
2020/12/28 10:48:09;;;;;;;;;;;;;;;5.83;65.55;95465.96;1722102;81;24936;-88
2020/12/28 10:50:55;;;;;;;;;;;;;;;5.83;65.39;95475.04;1703260;83;20421;-88
2020/12/28 10:53:43;;;;;;;;;;;;;;;5.86;65.29;95491.59;1698954;83;24981;-88
2020/12/28 10:56:29;;;;;;;;;;;;;;;5.88;65.22;95491.00;1706103;83;22206;-90
2020/12/28 10:59:15;;;;;;;;;;;;;;;5.89;65.15;95496.53;1692590;83;26102;-88
2020/12/28 11:02:01;;;;;;;;;;;;;;;5.92;65.05;95488.91;1705144;83;25433;-88
2020/12/28 11:04:47;;;;;;;;;;;;;;;5.92;64.96;95479.35;1720718;80;20286;-88
2020/12/28 11:07:33;;;;;;;;;;;;;;;5.95;64.90;95471.73;1728406;82;24928;-87
2020/12/28 11:10:20;;;;;;;;;;;;;;;5.95;64.83;95475.14;1723185;82;22217;-87
2020/12/28 11:13:06;;;;;;;;;;;;;;;5.95;64.73;95463.94;1731242;82;26947;-87
2020/12/28 11:15:53;;;;;;;;;;;;;;;5.98;64.63;95470.97;1736375;82;24627;-88
2020/12/28 11:18:39;;;;;;;;;;;;;;;5.99;64.60;95473.08;1740459;80;20315;-87
2020/12/28 11:21:29;;;;;;;;;;;;;;;5.99;64.54;95493.36;1733217;81;20175;-88
2020/12/28 11:24:15;;;;;;;;;;;;;;;6.03;64.49;95492.09;1731889;80;22110;-88
2020/12/28 11:27:02;;;;;;;;;;;;;;;6.05;64.45;95493.24;1734963;82;26412;-88
2020/12/28 11:29:48;;;;;;;;;;;;;;;6.06;64.41;95495.66;1731107;80;24575;-88
2020/12/28 11:32:35;;;;;;;;;;;;;;;6.08;64.39;95492.92;1723452;82;20301;-87
2020/12/28 11:35:21;;;;;;;;;;;;;;;6.07;64.31;95499.89;1740994;80;26003;-87
2020/12/28 11:38:07;;;;;;;;;;;;;;;6.06;64.27;95496.14;1738042;80;22096;-87
2020/12/28 11:40:54;;;;;;;;;;;;;;;6.02;64.24;95499.53;1739731;80;26391;-86
2020/12/28 11:43:40;;;;;;;;;;;;;;;6.02;64.19;95498.23;1714330;81;24610;-87
2020/12/28 11:46:25;;;;;;;;;;;;;;;6.04;64.17;95517.56;1741081;80;20625;-87
2020/12/28 11:49:13;;;;;;;;;;;;;;;6.03;64.09;95510.73;1738774;82;25214;-86
2020/12/28 11:52:00;;;;;;;;;;;;;;;6.02;64.03;95501.31;1711396;82;22325;-86
2020/12/28 11:54:47;;;;;;;;;;;;;;;5.99;63.95;95496.44;1707003;83;26071;-87
2020/12/28 11:57:33;;;;;;;;;;;;;;;6.00;63.86;95509.24;1712939;82;24847;-86
2020/12/28 12:00:20;;;;;;;;;;;;;;;6.00;63.80;95517.03;1716694;82;20286;-87
2020/12/28 12:03:06;;;;;;;;;;;;;;;5.94;63.71;95511.17;1710802;83;24932;-86
2020/12/28 12:05:52;;;;;;;;;;;;;;;5.92;63.60;95496.22;1710148;81;22118;-87
2020/12/28 12:09:08;;;;;;;;;;;;;;;5.91;63.43;95526.20;1737899;80;26112;-86
2020/12/28 12:11:28;;;;;;;;;;;;;;;5.88;63.31;95503.50;1735735;82;24576;-86
2020/12/28 12:14:16;;;;;;;;;;;;;;;5.85;63.16;95501.64;1733943;80;20408;-86
2020/12/28 12:17:04;;;;;;;;;;;;;;;5.81;63.07;95493.34;1736511;81;24921;-86
2020/12/28 12:19:50;;;;;;;;;;;;;;;5.79;62.96;95503.53;1737489;80;22127;-86
2020/12/28 12:22:36;;;;;;;;;;;;;;;5.80;62.85;95514.25;1734047;82;26093;-87
2020/12/28 12:25:22;;;;;;;;;;;;;;;5.78;62.78;95531.25;1734545;82;24658;-87
2020/12/28 12:28:08;;;;;;;;;;;;;;;5.77;62.70;95546.99;1731290;82;20434;-86
2020/12/28 12:30:56;;;;;;;;;;;;;;;5.77;62.64;95544.40;1741297;82;24913;-87
2020/12/28 12:33:42;;;;;;;;;;;;;;;5.75;62.56;95541.13;1739383;82;22162;-86
2020/12/28 12:36:28;;;;;;;;;;;;;;;5.74;62.50;95539.48;1733368;82;26119;-86
2020/12/28 12:39:14;;;;;;;;;;;;;;;5.75;62.42;95536.75;1740300;82;24568;-86
2020/12/28 12:42:00;;;;;;;;;;;;;;;5.73;62.40;95550.34;1726465;82;20445;-86
2020/12/28 12:44:46;;;;;;;;;;;;;;;5.77;62.37;95541.33;1739575;80;24940;-88
2020/12/28 12:47:32;;;;;;;;;;;;;;;5.77;62.34;95564.67;1734811;82;22448;-87
2020/12/28 12:50:19;;;;;;;;;;;;;;;5.74;62.30;95583.12;1734050;82;26111;-86
2020/12/28 12:53:06;;;;;;;;;;;;;;;5.76;62.30;95579.91;1705534;82;25114;-87
2020/12/28 12:55:52;;;;;;;;;;;;;;;5.76;62.31;95571.30;1740099;82;20271;-87
2020/12/28 12:58:39;;;;;;;;;;;;;;;5.79;62.29;95577.00;1739699;81;25766;-87
2020/12/28 13:01:25;;;;;;;;;;;;;;;5.84;62.28;95560.98;1729845;82;22120;-87
2020/12/28 13:04:30;;;;;;;;;;;;;;;5.87;62.25;95567.23;1736018;82;25932;-87
2020/12/28 13:07:00;;;;;;;;;;;;;;;5.92;62.27;95568.07;1732610;81;24578;-87
2020/12/28 13:09:46;;;;;;;;;;;;;;;5.94;62.27;95569.56;1733302;82;20345;-86
2020/12/28 13:12:32;;;;;;;;;;;;;;;5.96;62.29;95580.59;1740524;80;25065;-87
2020/12/28 13:15:18;;;;;;;;;;;;;;;5.98;62.26;95598.62;1737717;80;22151;-88
2020/12/28 13:18:08;;;;;;;;;;;;;;;5.99;62.25;95607.57;1735861;80;26103;-87
2020/12/28 13:20:53;;;;;;;;;;;;;;;5.98;62.24;95609.83;1738486;82;24060;-87
2020/12/28 13:23:40;;;;;;;;;;;;;;;5.98;62.24;95602.52;1734824;80;20352;-86
2020/12/28 13:26:26;;;;;;;;;;;;;;;5.94;62.24;95625.37;1740217;82;24197;-87
2020/12/28 13:29:12;;;;;;;;;;;;;;;5.95;62.24;95611.41;1726727;82;22253;-86
2020/12/28 13:31:59;;;;;;;;;;;;;;;5.95;62.24;95610.59;1741844;81;26107;-87
2020/12/28 13:34:45;;;;;;;;;;;;;;;5.93;62.23;95594.36;1745822;81;24513;-87
2020/12/28 13:37:35;;;;;;;;;;;;;;;5.92;62.28;95605.70;1738688;81;20424;-87
2020/12/28 13:40:21;;;;;;;;;;;;;;;5.93;62.31;95612.53;1734825;80;24969;-87
2020/12/28 13:43:08;;;;;;;;;;;;;;;5.93;62.34;95626.33;1738646;80;22213;-87
2020/12/28 13:45:54;;;;;;;;;;;;;;;5.96;62.36;95609.63;1733350;80;26127;-87
2020/12/28 13:48:40;;;;;;;;;;;;;;;5.95;62.38;95624.38;1728313;82;24743;-86
2020/12/28 13:51:27;;;;;;;;;;;;;;;5.93;62.41;95617.24;1730806;82;20289;-86
2020/12/28 13:54:14;;;;;;;;;;;;;;;5.96;62.45;95625.20;1737654;82;24964;-87
2020/12/28 13:57:02;;;;;;;;;;;;;;;5.97;62.48;95630.25;1715403;81;23051;-87
2020/12/28 13:59:49;;;;;;;;;;;;;;;5.98;62.53;95629.30;1707348;83;26985;-88
2020/12/28 14:02:35;;;;;;;;;;;;;;;5.95;62.54;95621.78;1709147;83;23840;-87
2020/12/28 14:05:21;;;;;;;;;;;;;;;5.95;62.54;95645.62;1709636;82;20367;-87
2020/12/28 14:08:07;;;;;;;;;;;;;;;5.95;62.53;95631.34;1711097;83;24904;-88
2020/12/28 14:10:53;;;;;;;;;;;;;;;5.96;62.55;95637.70;1718170;82;22085;-87
2020/12/28 14:13:39;;;;;;;;;;;;;;;5.93;62.54;95628.10;1733960;82;26063;-87
2020/12/28 14:16:28;;;;;;;;;;;;;;;5.91;62.54;95617.86;1733525;82;25576;-87
2020/12/28 14:19:13;;;;;;;;;;;;;;;5.89;62.55;95619.80;1732153;82;20667;-87
2020/12/28 14:21:59;;;;;;;;;;;;;;;5.87;62.55;95616.53;1694923;83;24923;-88
2020/12/28 14:24:45;;;;;;;;;;;;;;;5.84;62.51;95611.11;1699119;83;22141;-87
2020/12/28 14:27:31;;;;;;;;;;;;;;;5.84;62.51;95619.37;1693390;83;26338;-87
2020/12/28 14:30:18;;;;;;;;;;;;;;;5.82;62.50;95620.84;1704144;83;24630;-87
2020/12/28 14:33:04;;;;;;;;;;;;;;;5.78;62.46;95615.59;1701959;83;20290;-87
2020/12/28 14:35:50;;;;;;;;;;;;;;;5.75;62.41;95607.29;1700427;83;25015;-88
2020/12/28 14:38:36;;;;;;;;;;;;;;;5.72;62.38;95582.95;1701341;83;22236;-89
2020/12/28 14:41:22;;;;;;;;;;;;;;;5.69;62.37;95594.90;1701350;83;26091;-87